createdAt,value
2018-05-27T00:01:54.656Z,19.66
2018-05-27T00:04:22.155Z,19.56
2018-05-27T00:06:49.616Z,19.45
2018-05-27T00:09:17.099Z,19.33
2018-05-27T00:11:44.549Z,19.19
2018-05-27T00:14:12.312Z,19.22
2018-05-27T00:16:39.759Z,19.25
2018-05-27T00:19:07.217Z,19.22
2018-05-27T00:21:34.696Z,19.22
2018-05-27T00:24:02.156Z,18.66
2018-05-27T00:26:29.631Z,19.00
2018-05-27T00:28:57.095Z,19.08
2018-05-27T00:31:24.803Z,18.89
2018-05-27T00:33:52.267Z,19.01
2018-05-27T00:36:19.744Z,18.88
2018-05-27T00:38:47.243Z,18.97
2018-05-27T00:41:14.700Z,18.98
2018-05-27T00:43:42.209Z,18.81
2018-05-27T00:46:09.663Z,18.72
2018-05-27T00:48:37.149Z,18.83
2018-05-27T00:51:04.631Z,18.70
2018-05-27T00:53:43.915Z,18.58
2018-05-27T00:56:11.368Z,18.78
2018-05-27T00:58:38.842Z,18.66
2018-05-27T01:01:06.315Z,18.86
2018-05-27T01:03:33.788Z,18.67
2018-05-27T01:06:01.264Z,18.71
2018-05-27T01:08:28.715Z,18.67
2018-05-27T01:10:56.208Z,18.90
2018-05-27T01:13:23.667Z,18.88
2018-05-27T01:15:51.128Z,18.83
2018-05-27T01:18:18.661Z,18.84
2018-05-27T01:20:46.126Z,18.45
2018-05-27T01:23:13.640Z,18.61
2018-05-27T01:25:41.115Z,18.46
2018-05-27T01:28:08.599Z,18.43
2018-05-27T01:30:36.080Z,18.17
2018-05-27T01:33:03.547Z,18.38
2018-05-27T01:35:31.164Z,18.04
2018-05-27T01:37:58.617Z,18.20
2018-05-27T01:40:26.111Z,18.30
2018-05-27T01:42:53.572Z,18.12
2018-05-27T01:45:21.287Z,18.07
2018-05-27T01:47:48.810Z,18.05
2018-05-27T01:50:16.264Z,18.30
2018-05-27T01:52:43.741Z,18.43
2018-05-27T01:55:11.195Z,18.44
2018-05-27T01:57:38.697Z,18.34
2018-05-27T02:00:06.151Z,18.66
2018-05-27T02:02:33.911Z,18.72
2018-05-27T02:05:01.369Z,18.46
2018-05-27T02:07:28.874Z,18.54
2018-05-27T02:09:56.384Z,18.54
2018-05-27T02:12:23.843Z,18.76
2018-05-27T02:14:51.316Z,18.56
2018-05-27T02:17:18.768Z,18.42
2018-05-27T02:19:46.681Z,18.56
2018-05-27T02:22:14.149Z,18.42
2018-05-27T02:24:41.615Z,18.13
2018-05-27T02:27:09.091Z,18.11
2018-05-27T02:29:36.551Z,17.97
2018-05-27T02:32:04.043Z,18.10
2018-05-27T02:34:31.495Z,18.35
2018-05-27T02:36:59.204Z,18.49
2018-05-27T02:39:26.664Z,18.36
2018-05-27T02:41:54.116Z,18.24
2018-05-27T02:44:21.608Z,18.32
2018-05-27T02:46:49.067Z,18.43
2018-05-27T02:49:16.563Z,18.64
2018-05-27T02:51:44.021Z,18.57
2018-05-27T02:54:12.016Z,18.24
2018-05-27T02:56:39.471Z,18.30
2018-05-27T02:59:06.928Z,18.29
2018-05-27T03:01:34.415Z,18.43
2018-05-27T03:04:01.871Z,18.34
2018-05-27T03:06:29.348Z,18.24
2018-05-27T03:08:56.807Z,18.17
2018-05-27T03:11:24.476Z,18.06
2018-05-27T03:13:51.942Z,18.12
2018-05-27T03:16:19.402Z,18.25
2018-05-27T03:18:46.880Z,18.18
2018-05-27T03:21:14.331Z,18.21
2018-05-27T03:23:41.807Z,17.94
2018-05-27T03:26:09.264Z,17.62
2018-05-27T03:28:36.893Z,17.79
2018-05-27T03:31:04.364Z,17.95
2018-05-27T03:33:31.823Z,18.11
2018-05-27T03:35:59.295Z,18.01
2018-05-27T03:38:26.771Z,17.99
2018-05-27T03:40:54.247Z,17.76
2018-05-27T03:43:21.715Z,17.84
2018-05-27T03:45:49.352Z,17.67
2018-05-27T03:48:16.806Z,17.75
2018-05-27T03:50:44.283Z,17.66
2018-05-27T03:53:11.755Z,17.55
2018-05-27T03:55:39.212Z,17.59
2018-05-27T03:58:06.688Z,17.45
2018-05-27T04:00:34.152Z,17.38
2018-05-27T04:03:01.746Z,17.25
2018-05-27T04:05:42.043Z,17.30
2018-05-27T04:08:21.475Z,17.49
2018-05-27T04:10:48.939Z,17.44
2018-05-27T04:13:16.391Z,17.54
2018-05-27T04:15:43.867Z,17.44
2018-05-27T04:18:11.320Z,17.50
2018-05-27T04:20:38.799Z,17.56
2018-05-27T04:23:06.256Z,17.64
2018-05-27T04:25:33.960Z,17.74
2018-05-27T04:28:01.421Z,17.66
2018-05-27T04:30:28.884Z,17.69
2018-05-27T04:32:56.368Z,17.84
2018-05-27T04:35:23.824Z,17.76
2018-05-27T04:37:51.303Z,17.73
2018-05-27T04:40:18.760Z,17.71
2018-05-27T04:42:46.247Z,17.66
2018-05-27T04:45:13.716Z,17.87
2018-05-27T04:47:41.193Z,17.82
2018-05-27T04:50:08.672Z,17.85
2018-05-27T04:52:36.140Z,17.91
2018-05-27T04:55:03.619Z,18.02
2018-05-27T04:57:31.079Z,18.07
2018-05-27T04:59:58.663Z,18.00
2018-05-27T05:02:26.115Z,18.07
2018-05-27T05:04:53.576Z,18.20
2018-05-27T05:07:21.068Z,18.29
2018-05-27T05:09:48.571Z,18.68
2018-05-27T05:12:16.060Z,19.10
2018-05-27T05:14:43.524Z,18.82
2018-05-27T05:17:11.286Z,18.89
2018-05-27T05:19:38.740Z,19.51
2018-05-27T05:22:06.222Z,19.69
2018-05-27T05:24:33.683Z,20.21
2018-05-27T05:27:01.792Z,20.52
2018-05-27T05:29:29.271Z,20.95
2018-05-27T05:31:56.727Z,21.33
2018-05-27T05:34:24.496Z,21.36
2018-05-27T05:36:51.956Z,21.77
2018-05-27T05:39:19.419Z,21.92
2018-05-27T05:41:46.898Z,22.08
2018-05-27T05:44:14.355Z,22.39
2018-05-27T05:46:41.847Z,22.34
2018-05-27T05:49:09.304Z,22.22
2018-05-27T05:51:36.964Z,22.68
2018-05-27T05:54:04.460Z,22.79
2018-05-27T05:56:31.943Z,22.98
2018-05-27T05:58:59.424Z,22.52
2018-05-27T06:01:26.876Z,22.48
2018-05-27T06:03:54.431Z,22.87
2018-05-27T06:06:21.901Z,22.93
2018-05-27T06:08:49.617Z,23.00
2018-05-27T06:11:17.383Z,23.24
2018-05-27T06:13:44.835Z,23.66
2018-05-27T06:16:12.316Z,23.50
2018-05-27T06:18:39.775Z,23.68
2018-05-27T06:21:07.252Z,24.00
2018-05-27T06:23:34.794Z,23.90
2018-05-27T06:26:02.641Z,23.85
2018-05-27T06:28:30.107Z,24.22
2018-05-27T06:30:57.563Z,24.07
2018-05-27T06:33:25.040Z,24.17
2018-05-27T06:35:52.544Z,24.24
2018-05-27T06:38:20.012Z,24.71
2018-05-27T06:40:47.467Z,24.95
2018-05-27T06:43:15.136Z,24.92
2018-05-27T06:45:42.618Z,24.79
2018-05-27T06:48:10.126Z,24.54
2018-05-27T06:50:37.612Z,24.78
2018-05-27T06:53:05.060Z,24.96
2018-05-27T06:55:32.532Z,25.01
2018-05-27T06:58:00.062Z,24.95
2018-05-27T07:00:27.619Z,24.85
2018-05-27T07:02:55.197Z,25.02
2018-05-27T07:05:22.651Z,25.43
2018-05-27T07:07:50.138Z,25.03
2018-05-27T07:10:17.588Z,25.21
2018-05-27T07:12:45.056Z,25.30
2018-05-27T07:15:12.509Z,25.42
2018-05-27T07:17:40.011Z,25.41
2018-05-27T07:20:07.455Z,25.15
2018-05-27T07:22:34.904Z,24.89
2018-05-27T07:25:02.383Z,25.15
2018-05-27T07:27:29.829Z,24.91
2018-05-27T07:29:57.306Z,25.21
2018-05-27T07:32:24.751Z,25.46
2018-05-27T07:34:52.296Z,25.49
2018-05-27T07:37:19.744Z,25.26
2018-05-27T07:39:47.210Z,25.34
2018-05-27T07:42:14.687Z,25.68
2018-05-27T07:44:42.139Z,25.53
2018-05-27T07:47:09.624Z,25.28
2018-05-27T07:49:37.073Z,25.92
2018-05-27T07:52:04.592Z,25.25
2018-05-27T07:54:32.042Z,25.08
2018-05-27T07:56:59.503Z,25.08
2018-05-27T07:59:27.003Z,25.07
2018-05-27T08:01:54.528Z,25.24
2018-05-27T08:04:22.035Z,25.12
2018-05-27T08:06:49.484Z,25.18
2018-05-27T08:09:17.183Z,25.50
2018-05-27T08:11:44.640Z,25.28
2018-05-27T08:14:12.091Z,25.43
2018-05-27T08:16:39.559Z,25.24
2018-05-27T08:19:07.004Z,25.55
2018-05-27T08:21:34.468Z,25.47
2018-05-27T08:24:01.960Z,25.43
2018-05-27T08:26:29.691Z,25.54
2018-05-27T08:28:57.141Z,25.57
2018-05-27T08:31:24.604Z,25.46
2018-05-27T08:33:52.079Z,25.50
2018-05-27T08:36:19.544Z,25.82
2018-05-27T08:38:47.040Z,25.96
2018-05-27T08:41:14.495Z,26.03
2018-05-27T08:43:42.168Z,26.39
2018-05-27T08:46:09.619Z,26.25
2018-05-27T08:48:37.196Z,26.50
2018-05-27T08:51:04.680Z,26.07
2018-05-27T08:53:32.140Z,26.44
2018-05-27T08:55:59.611Z,26.37
2018-05-27T08:58:27.098Z,26.70
2018-05-27T09:00:54.775Z,26.75
2018-05-27T09:03:22.223Z,26.62
2018-05-27T09:05:49.688Z,26.66
2018-05-27T09:08:17.163Z,26.74
2018-05-27T09:10:44.615Z,26.99
2018-05-27T09:13:12.135Z,27.68
2018-05-27T09:15:39.588Z,27.58
2018-05-27T09:18:07.224Z,28.16
2018-05-27T09:20:34.676Z,27.92
2018-05-27T09:23:02.143Z,28.39
2018-05-27T09:25:29.622Z,27.91
2018-05-27T09:27:57.082Z,27.76
2018-05-27T09:30:24.568Z,27.46
2018-05-27T09:32:52.018Z,27.98
2018-05-27T09:35:19.580Z,28.54
2018-05-27T09:37:47.047Z,28.33
2018-05-27T09:40:14.507Z,28.31
2018-05-27T09:42:41.984Z,28.78
2018-05-27T09:45:09.452Z,27.90
2018-05-27T09:47:36.955Z,28.04
2018-05-27T09:50:04.395Z,27.79
2018-05-27T09:52:32.147Z,27.80
2018-05-27T09:54:59.613Z,27.84
2018-05-27T09:57:27.060Z,27.89
2018-05-27T09:59:54.592Z,27.76
2018-05-27T10:02:21.993Z,27.87
2018-05-27T10:04:49.459Z,28.24
2018-05-27T10:07:16.946Z,28.71
2018-05-27T10:09:44.748Z,28.38
2018-05-27T10:12:12.196Z,28.48
2018-05-27T10:14:39.662Z,28.52
2018-05-27T10:17:07.136Z,28.91
2018-05-27T10:19:34.586Z,28.58
2018-05-27T10:22:02.055Z,28.78
2018-05-27T10:24:29.516Z,28.49
2018-05-27T10:26:57.152Z,28.45
2018-05-27T10:29:24.600Z,28.45
2018-05-27T10:31:52.070Z,28.55
2018-05-27T10:34:19.539Z,28.44
2018-05-27T10:36:47.070Z,28.35
2018-05-27T10:39:14.543Z,27.80
2018-05-27T10:41:42.016Z,28.39
2018-05-27T10:44:09.628Z,28.42
2018-05-27T10:46:37.097Z,27.76
2018-05-27T10:49:04.556Z,28.29
2018-05-27T10:51:32.024Z,28.25
2018-05-27T10:53:59.471Z,27.92
2018-05-27T10:56:26.939Z,28.12
2018-05-27T10:58:54.392Z,28.43
2018-05-27T11:01:21.875Z,28.56
2018-05-27T11:03:49.343Z,28.29
2018-05-27T11:06:16.824Z,27.97
2018-05-27T11:08:44.298Z,28.13
2018-05-27T11:11:11.759Z,28.69
2018-05-27T11:13:39.235Z,28.47
2018-05-27T11:16:06.711Z,28.27
2018-05-27T11:18:34.155Z,28.17
2018-05-27T11:21:01.635Z,28.44
2018-05-27T11:23:29.084Z,28.41
2018-05-27T11:25:56.656Z,28.61
2018-05-27T11:28:24.128Z,28.85
2018-05-27T11:30:51.579Z,29.27
2018-05-27T11:33:19.052Z,28.75
2018-05-27T11:35:46.509Z,28.73
2018-05-27T11:38:13.999Z,29.34
2018-05-27T11:40:41.460Z,29.32
2018-05-27T11:43:08.908Z,29.03
2018-05-27T11:45:36.376Z,28.71
2018-05-27T11:48:03.836Z,29.06
2018-05-27T11:50:31.427Z,29.37
2018-05-27T11:52:58.884Z,29.04
2018-05-27T11:55:26.335Z,29.27
2018-05-27T11:57:53.804Z,29.30
2018-05-27T12:00:21.255Z,29.25
2018-05-27T12:02:49.064Z,29.15
2018-05-27T12:05:16.524Z,29.72
2018-05-27T12:07:43.987Z,29.83
2018-05-27T12:10:11.452Z,29.22
2018-05-27T12:12:38.915Z,29.52
2018-05-27T12:15:06.474Z,29.95
2018-05-27T12:17:33.969Z,30.06
2018-05-27T12:20:01.452Z,30.26
2018-05-27T12:22:28.908Z,30.40
2018-05-27T12:24:56.361Z,29.74
2018-05-27T12:27:23.832Z,29.45
2018-05-27T12:29:51.297Z,29.41
2018-05-27T12:32:18.772Z,29.29
2018-05-27T12:34:46.219Z,29.27
2018-05-27T12:37:13.736Z,29.27
2018-05-27T12:39:41.187Z,29.08
2018-05-27T12:42:08.643Z,28.99
2018-05-27T12:44:36.134Z,28.63
2018-05-27T12:47:03.591Z,29.01
2018-05-27T12:49:31.060Z,28.95
2018-05-27T12:51:58.548Z,29.11
2018-05-27T12:54:26.144Z,29.15
2018-05-27T12:56:53.623Z,29.07
2018-05-27T12:59:21.080Z,29.19
2018-05-27T13:01:48.551Z,29.31
2018-05-27T13:04:16.024Z,29.12
2018-05-27T13:06:43.491Z,28.78
2018-05-27T13:09:10.935Z,28.93
2018-05-27T13:11:38.453Z,28.99
2018-05-27T13:14:05.903Z,29.12
2018-05-27T13:16:33.390Z,29.05
2018-05-27T13:19:00.869Z,28.88
2018-05-27T13:21:28.311Z,28.57
2018-05-27T13:23:55.803Z,29.01
2018-05-27T13:26:23.251Z,28.89
2018-05-27T13:28:50.723Z,28.63
2018-05-27T13:31:18.172Z,29.13
2018-05-27T13:33:45.621Z,28.73
2018-05-27T13:36:13.088Z,28.65
2018-05-27T13:38:40.539Z,28.66
2018-05-27T13:41:08.007Z,28.76
2018-05-27T13:43:35.471Z,28.35
2018-05-27T13:46:02.963Z,28.41
2018-05-27T13:48:30.408Z,28.35
2018-05-27T13:50:57.874Z,28.52
2018-05-27T13:53:25.345Z,28.40
2018-05-27T13:55:52.811Z,28.48
2018-05-27T13:58:20.290Z,28.35
2018-05-27T14:00:47.780Z,28.27
2018-05-27T14:03:15.395Z,28.40
2018-05-27T14:05:42.851Z,28.28
2018-05-27T14:08:10.304Z,28.15
2018-05-27T14:10:37.780Z,28.20
2018-05-27T14:13:05.243Z,28.30
2018-05-27T14:15:32.711Z,28.30
2018-05-27T14:18:00.159Z,28.05
2018-05-27T14:20:27.788Z,27.85
2018-05-27T14:22:55.248Z,27.94
2018-05-27T14:25:22.701Z,28.02
2018-05-27T14:27:50.174Z,28.17
2018-05-27T14:30:17.623Z,28.27
2018-05-27T14:32:45.131Z,28.11
2018-05-27T14:35:12.603Z,28.25
2018-05-27T14:37:40.484Z,28.18
2018-05-27T14:40:08.011Z,27.97
2018-05-27T14:42:35.455Z,27.90
2018-05-27T14:45:02.928Z,27.83
2018-05-27T14:47:30.372Z,27.90
2018-05-27T14:49:57.851Z,27.71
2018-05-27T14:52:25.304Z,27.65
2018-05-27T14:54:52.791Z,27.64
2018-05-27T14:57:20.241Z,27.69
2018-05-27T14:59:47.693Z,27.56
2018-05-27T15:02:15.168Z,27.55
2018-05-27T15:04:42.628Z,27.38
2018-05-27T15:07:10.106Z,27.14
2018-05-27T15:09:37.560Z,27.05
2018-05-27T15:12:05.386Z,27.12
2018-05-27T15:14:32.868Z,27.21
2018-05-27T15:17:00.323Z,27.23
2018-05-27T15:19:27.799Z,26.78
2018-05-27T15:21:55.244Z,26.53
2018-05-27T15:24:22.728Z,26.49
2018-05-27T15:26:50.190Z,26.22
2018-05-27T15:29:17.671Z,26.51
2018-05-27T15:31:45.156Z,26.30
2018-05-27T15:34:12.615Z,26.11
2018-05-27T15:36:40.088Z,26.60
2018-05-27T15:39:07.554Z,26.14
2018-05-27T15:41:35.028Z,26.17
2018-05-27T15:44:02.476Z,26.03
2018-05-27T15:46:30.099Z,25.84
2018-05-27T15:48:57.556Z,25.78
2018-05-27T15:51:25.012Z,25.83
2018-05-27T15:53:52.533Z,25.62
2018-05-27T15:56:19.955Z,25.30
2018-05-27T15:58:47.428Z,25.44
2018-05-27T16:01:14.875Z,25.51
2018-05-27T16:03:42.363Z,25.31
2018-05-27T16:06:09.812Z,25.51
2018-05-27T16:08:37.284Z,25.18
2018-05-27T16:11:04.761Z,24.84
2018-05-27T16:13:32.212Z,24.98
2018-05-27T16:15:59.691Z,24.76
2018-05-27T16:18:27.135Z,24.74
2018-05-27T16:20:55.042Z,24.52
2018-05-27T16:23:22.488Z,24.58
2018-05-27T16:25:49.959Z,24.81
2018-05-27T16:28:17.428Z,24.54
2018-05-27T16:30:44.899Z,24.38
2018-05-27T16:33:12.376Z,24.46
2018-05-27T16:35:39.833Z,24.79
2018-05-27T16:38:07.324Z,24.96
2018-05-27T16:40:34.783Z,25.00
2018-05-27T16:43:02.233Z,24.77
2018-05-27T16:45:29.751Z,24.32
2018-05-27T16:47:57.220Z,24.63
2018-05-27T16:50:24.683Z,24.58
2018-05-27T16:52:52.137Z,24.51
2018-05-27T16:55:19.641Z,24.36
2018-05-27T16:57:47.095Z,24.33
2018-05-27T17:00:14.554Z,24.26
2018-05-27T17:02:42.036Z,24.14
2018-05-27T17:05:09.495Z,24.11
2018-05-27T17:07:36.988Z,24.40
2018-05-27T17:10:04.440Z,24.32
2018-05-27T17:12:31.915Z,24.30
2018-05-27T17:14:59.383Z,24.26
2018-05-27T17:17:26.828Z,24.32
2018-05-27T17:19:54.311Z,24.34
2018-05-27T17:22:21.779Z,24.38
2018-05-27T17:24:49.256Z,24.45
2018-05-27T17:27:16.733Z,24.49
2018-05-27T17:29:44.312Z,24.54
2018-05-27T17:32:11.772Z,24.36
2018-05-27T17:34:39.227Z,24.59
2018-05-27T17:37:06.712Z,24.72
2018-05-27T17:39:34.169Z,24.47
2018-05-27T17:42:01.651Z,24.49
2018-05-27T17:44:29.104Z,24.43
2018-05-27T17:46:56.676Z,24.36
2018-05-27T17:49:24.124Z,24.27
2018-05-27T17:51:51.575Z,24.27
2018-05-27T17:54:19.132Z,24.35
2018-05-27T17:56:46.561Z,24.47
2018-05-27T17:59:14.042Z,24.39
2018-05-27T18:01:41.509Z,24.02
2018-05-27T18:04:09.050Z,23.95
2018-05-27T18:06:36.479Z,24.02
2018-05-27T18:09:03.930Z,23.74
2018-05-27T18:11:31.461Z,23.44
2018-05-27T18:13:58.926Z,23.16
2018-05-27T18:16:26.406Z,23.29
2018-05-27T18:18:53.856Z,23.53
2018-05-27T18:21:21.344Z,23.20
2018-05-27T18:23:48.819Z,23.17
2018-05-27T18:26:16.315Z,23.40
2018-05-27T18:28:43.810Z,23.64
2018-05-27T18:31:11.321Z,23.28
2018-05-27T18:33:38.803Z,23.27
2018-05-27T18:36:06.247Z,23.48
2018-05-27T18:38:33.756Z,23.41
2018-05-27T18:41:01.215Z,23.42
2018-05-27T18:43:28.664Z,23.50
2018-05-27T18:45:56.181Z,23.53
2018-05-27T18:48:23.644Z,23.51
2018-05-27T18:50:51.213Z,23.50
2018-05-27T18:53:18.660Z,23.61
2018-05-27T18:55:46.175Z,23.60
2018-05-27T18:58:13.636Z,23.82
2018-05-27T19:00:41.112Z,23.64
2018-05-27T19:03:08.599Z,23.98
2018-05-27T19:05:36.051Z,24.14
2018-05-27T19:08:03.515Z,23.74
2018-05-27T19:10:31.026Z,23.74
2018-05-27T19:12:58.823Z,23.50
2018-05-27T19:15:26.232Z,23.90
2018-05-27T19:17:53.685Z,23.74
2018-05-27T19:20:21.168Z,23.49
2018-05-27T19:22:48.655Z,24.00
2018-05-27T19:25:16.142Z,23.57
2018-05-27T19:27:43.590Z,24.11
2018-05-27T19:30:11.347Z,24.03
2018-05-27T19:32:38.825Z,23.66
2018-05-27T19:35:07.104Z,23.70
2018-05-27T19:37:34.592Z,23.58
2018-05-27T19:40:02.609Z,23.41
2018-05-27T19:42:30.088Z,23.22
2018-05-27T19:44:58.303Z,23.09
2018-05-27T19:47:25.784Z,23.09
2018-05-27T19:49:53.239Z,23.04
2018-05-27T19:52:20.699Z,22.91
2018-05-27T19:54:48.202Z,22.52
2018-05-27T19:57:15.652Z,22.67
2018-05-27T19:59:43.144Z,22.73
2018-05-27T20:02:10.623Z,22.77
2018-05-27T20:04:38.489Z,22.72
2018-05-27T20:07:05.959Z,22.89
2018-05-27T20:09:33.420Z,22.83
2018-05-27T20:12:00.925Z,22.71
2018-05-27T20:14:28.415Z,22.70
2018-05-27T20:16:55.909Z,22.70
2018-05-27T20:19:23.375Z,22.59
2018-05-27T20:21:51.101Z,22.23
2018-05-27T20:24:18.603Z,22.15
2018-05-27T20:26:46.079Z,22.48
2018-05-27T20:29:13.551Z,22.38
2018-05-27T20:31:40.999Z,22.43
2018-05-27T20:34:08.486Z,22.21
2018-05-27T20:36:35.940Z,22.39
2018-05-27T20:39:03.439Z,22.47
2018-05-27T20:41:30.904Z,22.58
2018-05-27T20:43:58.367Z,22.51
2018-05-27T20:46:25.842Z,22.41
2018-05-27T20:48:53.296Z,22.42
2018-05-27T20:51:20.775Z,22.38
2018-05-27T20:53:48.236Z,22.37
2018-05-27T20:56:15.819Z,22.50
2018-05-27T20:58:43.268Z,22.97
2018-05-27T21:01:10.744Z,23.02
2018-05-27T21:03:38.218Z,22.86
2018-05-27T21:06:05.664Z,23.04
2018-05-27T21:08:33.132Z,23.25
2018-05-27T21:11:00.582Z,23.29
2018-05-27T21:13:28.071Z,23.28
2018-05-27T21:15:55.523Z,23.22
2018-05-27T21:18:22.975Z,23.04
2018-05-27T21:20:50.458Z,22.83
2018-05-27T21:23:17.908Z,22.45
2018-05-27T21:25:45.388Z,22.80
2018-05-27T21:28:12.836Z,22.80
2018-05-27T21:30:40.364Z,22.62
2018-05-27T21:33:07.832Z,22.87
2018-05-27T21:35:35.292Z,22.83
2018-05-27T21:38:02.804Z,22.40
2018-05-27T21:40:30.260Z,21.92
2018-05-27T21:42:57.731Z,21.63
2018-05-27T21:45:25.252Z,21.52
2018-05-27T21:47:52.697Z,20.91
2018-05-27T21:50:20.149Z,20.94
2018-05-27T21:52:47.595Z,20.97
2018-05-27T21:55:15.083Z,21.32
2018-05-27T21:57:42.539Z,21.22
2018-05-27T22:00:10.016Z,21.14
2018-05-27T22:02:37.457Z,20.94
2018-05-27T22:05:04.933Z,21.08
2018-05-27T22:07:32.380Z,21.14
2018-05-27T22:09:59.823Z,21.05
2018-05-27T22:12:27.287Z,20.89
2018-05-27T22:14:54.773Z,20.82
2018-05-27T22:17:22.252Z,21.12
2018-05-27T22:19:49.707Z,21.04
2018-05-27T22:22:17.436Z,20.97
2018-05-27T22:24:44.879Z,21.02
2018-05-27T22:27:12.327Z,20.93
2018-05-27T22:29:39.805Z,20.85
2018-05-27T22:32:07.259Z,20.81
2018-05-27T22:34:34.742Z,20.66
2018-05-27T22:37:02.188Z,20.61
2018-05-27T22:39:29.790Z,20.86
2018-05-27T22:41:57.235Z,20.81
2018-05-27T22:44:24.679Z,20.79
2018-05-27T22:46:52.152Z,20.59
2018-05-27T22:49:19.616Z,20.82
2018-05-27T22:51:47.089Z,20.94
2018-05-27T22:54:14.551Z,21.08
2018-05-27T22:56:42.195Z,20.57
2018-05-27T22:59:09.651Z,20.64
2018-05-27T23:01:37.107Z,20.64
2018-05-27T23:04:04.573Z,20.53
2018-05-27T23:06:32.036Z,20.43
2018-05-27T23:08:59.508Z,20.51
2018-05-27T23:11:26.956Z,20.33
2018-05-27T23:13:54.456Z,20.33
2018-05-27T23:16:21.903Z,20.08
2018-05-27T23:18:49.355Z,20.08
2018-05-27T23:21:16.823Z,20.04
2018-05-27T23:23:44.277Z,19.91
2018-05-27T23:26:11.752Z,19.93
2018-05-27T23:28:39.204Z,20.03
2018-05-27T23:31:07.084Z,20.18
2018-05-27T23:33:34.528Z,20.12
2018-05-27T23:36:02.047Z,20.21
2018-05-27T23:38:29.477Z,20.11
2018-05-27T23:40:56.944Z,20.11
2018-05-27T23:43:24.431Z,20.19
2018-05-27T23:45:52.033Z,20.05
2018-05-27T23:48:19.536Z,20.08
2018-05-27T23:50:46.984Z,19.71
2018-05-27T23:53:14.471Z,19.85
2018-05-27T23:55:41.943Z,19.80
2018-05-27T23:58:09.383Z,19.62
